Flight Track Log - Related Links

Times and Time Zones

All times are in EDT time to prevent confusion due to time zone crossing. See the SKW4664 flight status page for this flight to view local times or setup timezone preferences in your user account.

Time Position Orientation Groundspeed Altitude Reporting Facility
EDT Latitude Longitude Course Direction KTS MPH feet Rate Location/Type
Wed 12:13:35 PM 43.5494 -96.7014 108° East 219 252 4,300  Level Minneapolis Center
Wed 12:14:37 PM 43.6067 -96.6089 49° Northeast 256 295 8,000 3,242 Climbing Minneapolis Center
Wed 12:15:39 PM 43.6550 -96.5297 50° Northeast 265 305 11,000 2,758 Climbing Minneapolis Center
Wed 12:16:41 PM 43.7047 -96.4456 51° Northeast 275 316 13,700 2,516 Climbing Minneapolis Center
Wed 12:17:43 PM 43.7564 -96.3578 51° Northeast 290 334 16,200 2,226 Climbing Minneapolis Center
Wed 12:18:45 PM 43.8106 -96.2678 50° Northeast 302 348 18,300 2,177 Climbing Minneapolis Center
Wed 12:19:47 PM 43.8767 -96.1539 51° Northeast 319 367 20,700 1,902 Climbing Minneapolis Center
Wed 12:20:48 PM 43.9344 -96.0564 51° Northeast 329 379 22,200 1,122 Climbing Minneapolis Center
Wed 12:21:50 PM 43.9958 -95.9550 50° Northeast 343 395 23,000 387 Climbing Minneapolis Center
Wed 12:22:52 PM 44.0547 -95.8525 51° Northeast 345 397 23,000  Level Minneapolis Center
Wed 12:23:54 PM 44.1147 -95.7497 51° Northeast 345 397 23,000  Level Minneapolis Center
Wed 12:24:56 PM 44.1761 -95.6431 51° Northeast 352 405 23,000  Level Minneapolis Center
Wed 12:25:58 PM 44.2408 -95.5017 57° Northeast 362 417 23,000  Level Minneapolis Center
Wed 12:27:00 PM 44.2831 -95.3733 65° Northeast 364 419 23,000  Level Minneapolis Center
Wed 12:28:02 PM 44.3289 -95.2358 65° Northeast 386 444 23,000  Level Minneapolis Center
Wed 12:29:04 PM 44.3811 -95.0858 64° Northeast 426 490 23,000  Level Minneapolis Center
Wed 12:30:06 PM 44.4344 -94.9339 64° Northeast 434 499 23,000 -968 Level Minneapolis Center
Wed 12:31:08 PM 44.4958 -94.7525 65° Northeast 432 497 21,000 -1,935 Descending Minneapolis Center
Wed 12:32:10 PM 44.5408 -94.6178 65° Northeast 423 487 19,000 -2,323 Descending Minneapolis Center
Wed 12:33:12 PM 44.5897 -94.4719 65° Northeast 413 475 16,200 -2,914 Descending Minneapolis Center
Wed 12:33:55 PM 44.6311 -94.3625 62° Northeast 390 449 13,900 -3,143 Descending FAA TRACON SMA TRACON (SMA)
Wed 12:34:15 PM 44.6483 -94.3100 65° Northeast 383 441 12,900 -2,700 Descending FAA TRACON SMA TRACON (SMA)
Wed 12:34:35 PM 44.6614 -94.2686 66° East 378 435 12,100 -2,400 Descending FAA TRACON SMA TRACON (SMA)
Wed 12:34:55 PM 44.6739 -94.2281 67° East 372 428 11,300 -1,610 Descending FAA TRACON SMA TRACON (SMA)
Wed 12:35:16 PM 44.6906 -94.1775 65° Northeast 369 425 11,000 -439 Descending FAA TRACON SMA TRACON (SMA)
Wed 12:35:36 PM 44.7014 -94.1358 70° East 368 423 11,000 -150 Level FAA TRACON SMA TRACON (SMA)
Wed 12:35:56 PM 44.7103 -94.0936 73° East 368 423 10,900 -150 Descending FAA TRACON SMA TRACON (SMA)
Wed 12:36:16 PM 44.7217 -94.0400 73° East 368 423 10,900  Level FAA TRACON SMA TRACON (SMA)
Wed 12:36:36 PM 44.7303 -93.9978 74° East 369 425 10,900  Level FAA TRACON SMA TRACON (SMA)
Wed 12:36:56 PM 44.7400 -93.9561 72° East 366 421 10,900  Level FAA TRACON SMA TRACON (SMA)
Wed 12:37:15 PM 44.7494 -93.9139 73° East 367 422 10,900  Level FAA TRACON SMA TRACON (SMA)
Wed 12:37:35 PM 44.7606 -93.8606 74° East 369 425 10,900 150 Level FAA TRACON SMA TRACON (SMA)
Wed 12:37:55 PM 44.7700 -93.8181 73° East 368 423 11,000 146 Climbing FAA TRACON SMA TRACON (SMA)
Wed 12:38:16 PM 44.7814 -93.7656 73° East 368 423 11,000  Level FAA TRACON SMA TRACON (SMA)
Wed 12:38:56 PM 44.8006 -93.6811 72° East 368 423 11,000 -100 Level FAA TRACON SMA TRACON (SMA)
Wed 12:39:16 PM 44.8114 -93.6275 74° East 369 425 10,900 -439 Descending FAA TRACON SMA TRACON (SMA)
Wed 12:39:37 PM 44.8203 -93.5867 73° East 359 413 10,700 -615 Descending FAA TRACON SMA TRACON (SMA)
Wed 12:39:55 PM 44.8292 -93.5483 72° East 340 391 10,500 -1,077 Descending FAA TRACON SMA TRACON (SMA)
Wed 12:40:16 PM 44.8386 -93.5036 73° East 314 361 10,000 -1,463 Descending FAA TRACON SMA TRACON (SMA)
Wed 12:40:36 PM 44.8464 -93.4683 73° East 305 351 9,500 -1,692 Descending FAA TRACON SMA TRACON (SMA)
Wed 12:40:55 PM 44.8542 -93.4344 72° East 300 345 8,900 -1,950 Descending FAA TRACON SMA TRACON (SMA)
Wed 12:41:16 PM 44.8633 -93.3917 73° East 294 338 8,200 -1,317 Descending FAA TRACON SMA TRACON (SMA)
Wed 12:41:36 PM 44.8628 -93.3581 91° East 293 337 8,000 -450 Descending FAA TRACON SMA TRACON (SMA)
Wed 12:41:56 PM 44.8486 -93.3306 126° Southeast 293 337 7,900 -150 Descending FAA TRACON SMA TRACON (SMA)
Wed 12:42:16 PM 44.8233 -93.3181 161° South 262 302 7,900 -300 Level FAA TRACON SMA TRACON (SMA)
Wed 12:42:36 PM 44.8033 -93.3133 170° South 238 274 7,700 -900 Descending FAA TRACON SMA TRACON (SMA)
Wed 12:42:56 PM 44.7842 -93.3094 172° South 229 264 7,300 -1,350 Descending FAA TRACON SMA TRACON (SMA)
Wed 12:43:16 PM 44.7600 -93.3042 171° South 226 260 6,800 -1,385 Descending FAA TRACON SMA TRACON (SMA)
Wed 12:43:35 PM 44.7411 -93.3008 173° South 223 257 6,400 -750 Descending FAA TRACON SMA TRACON (SMA)
Wed 12:43:56 PM 44.7231 -93.2978 173° South 217 250 6,300 -293 Descending FAA TRACON SMA TRACON (SMA)
Wed 12:44:16 PM 44.7028 -93.2936 172° South 195 224 6,200 -900 Descending FAA TRACON SMA TRACON (SMA)
Wed 12:44:36 PM 44.6892 -93.2833 152° Southeast 191 220 5,700 -1,350 Descending FAA TRACON SMA TRACON (SMA)
Wed 12:44:56 PM 44.6850 -93.2603 104° East 208 239 5,300 -1,650 Descending FAA TRACON SMA TRACON (SMA)
Wed 12:45:16 PM 44.6978 -93.2386 50° Northeast 208 239 4,600 -1,714 Descending FAA TRACON SMA TRACON (SMA)
Wed 12:45:38 PM 44.7128 -93.2283 26° Northeast 194 223 4,100 -1,429 Descending FAA TRACON SMA TRACON (SMA)
Wed 12:45:58 PM 44.7311 -93.2156 26° Northeast 191 220 3,600 -1,579 Descending FAA TRACON SMA TRACON (SMA)
Wed 12:46:16 PM 44.7461 -93.2069 22° Northeast 190 219 3,100 -789 Descending FAA TRACON SMA TRACON (SMA)
Wed 12:46:36 PM 44.7608 -93.2086 355° North 181 208 3,100  Level FAA TRACON SMA TRACON (SMA)

Login

Don't have an account? Register now (free) for customized features, flight alerts, and more!